Time;durP1;ratioP1;P1;durP2;ratioP2;P2;SDS_P1;SDS_P2;PMS_P1;PMS_P2;Temp;Humidity;BMP_temperature;BMP_pressure;BME280_temperature;BME280_humidity;BME280_pressure;Samples;Min_cycle;Max_cycle;Signal;HPM_P1;HPM_P2
2023/03/20 00:02:02;;;;;;;33.72;15.50;;;;;;;14.67;100.00;101518.94;5005608;28;20099;-76
2023/03/20 00:04:29;;;;;;;36.90;18.25;;;;;;;14.54;100.00;101515.03;5004826;28;20050;-76
2023/03/20 00:06:55;;;;;;;41.25;18.92;;;;;;;14.61;100.00;101509.44;5004863;28;20089;-73
2023/03/20 00:09:24;;;;;;;37.97;18.67;;;;;;;14.59;100.00;101518.22;5001593;28;20042;-75
2023/03/20 00:11:52;;;;;;;41.55;18.45;;;;;;;14.87;100.00;101526.41;5006625;28;20046;-74
2023/03/20 00:14:21;;;;;;;40.00;19.40;;;;;;;11.93;100.00;101517.97;4997741;28;20567;-78
2023/03/20 00:16:49;;;;;;;14.48;5.97;;;;;;;12.12;100.00;101526.03;5007812;28;20069;-74
2023/03/20 00:19:28;;;;;;;32.42;14.27;;;;;;;11.78;100.00;101516.31;5006468;28;20053;-73
2023/03/20 00:21:55;;;;;;;39.08;18.55;;;;;;;12.20;100.00;101524.84;5000250;28;20455;-76
2023/03/20 00:24:23;;;;;;;36.60;16.63;;;;;;;11.59;100.00;101531.19;5004633;28;20120;-75
2023/03/20 00:26:51;;;;;;;26.73;11.18;;;;;;;11.55;100.00;101516.50;5007325;28;20045;-74
2023/03/20 00:29:22;;;;;;;43.50;17.55;;;;;;;11.69;100.00;101529.69;5021238;28;20573;-73
2023/03/20 00:31:50;;;;;;;40.20;18.65;;;;;;;11.52;100.00;101531.13;5005594;28;20041;-73
2023/03/20 00:34:19;;;;;;;12.32;4.93;;;;;;;11.34;100.00;101529.41;5003989;28;20077;-77
2023/03/20 00:36:46;;;;;;;36.05;15.07;;;;;;;11.63;100.00;101536.78;5001749;28;20072;-75
2023/03/20 00:39:12;;;;;;;39.55;16.40;;;;;;;11.83;100.00;101541.69;5006478;28;20080;-73
2023/03/20 00:41:42;;;;;;;29.60;12.18;;;;;;;14.40;100.00;101538.19;4998934;28;20045;-75
2023/03/20 00:44:25;;;;;;;42.05;19.75;;;;;;;14.69;100.00;101539.66;5001948;28;20072;-73
2023/03/20 00:47:03;;;;;;;44.70;17.83;;;;;;;14.62;100.00;101539.66;5019742;28;20050;-74
2023/03/20 00:49:32;;;;;;;42.40;17.75;;;;;;;14.34;100.00;101534.22;5006321;28;20053;-74
2023/03/20 00:52:00;;;;;;;39.85;19.30;;;;;;;14.57;100.00;101542.88;5002170;28;20050;-75
2023/03/20 00:54:27;;;;;;;27.90;10.93;;;;;;;14.13;100.00;101534.25;5002425;28;20070;-75
2023/03/20 00:57:29;;;;;;;18.67;8.32;;;;;;;14.11;100.00;101517.16;5006406;28;20141;-75
2023/03/20 01:00:04;;;;;;;25.67;11.30;;;;;;;14.21;100.00;101518.34;5003967;28;20092;-73
2023/03/20 01:02:31;;;;;;;35.45;13.60;;;;;;;14.15;100.00;101512.41;5004277;28;20156;-76
2023/03/20 01:04:58;;;;;;;43.70;20.65;;;;;;;14.46;100.00;101521.84;5003413;28;20076;-73
2023/03/20 01:07:25;;;;;;;24.85;9.60;;;;;;;14.36;100.00;101512.34;5005279;28;20067;-75
2023/03/20 01:09:51;;;;;;;38.55;15.27;;;;;;;14.14;100.00;101515.59;5001419;28;20513;-73
2023/03/20 01:12:18;;;;;;;24.08;9.02;;;;;;;14.04;100.00;101514.41;5006499;28;20527;-75
2023/03/20 01:14:52;;;;;;;22.23;9.82;;;;;;;14.20;100.00;101517.53;5006278;28;20053;-74
2023/03/20 01:17:21;;;;;;;37.97;17.55;;;;;;;14.27;100.00;101520.31;5008103;28;20447;-72
2023/03/20 01:19:48;;;;;;;20.80;7.65;;;;;;;13.61;100.00;101524.03;5007728;28;20057;-76
2023/03/20 01:22:16;;;;;;;33.45;14.15;;;;;;;13.39;100.00;101519.66;5006478;28;20042;-74
2023/03/20 01:24:43;;;;;;;31.75;13.27;;;;;;;14.06;100.00;101522.34;5007573;28;20078;-74
2023/03/20 01:27:16;;;;;;;21.98;8.57;;;;;;;13.83;100.00;101522.00;5006638;28;20058;-74
2023/03/20 01:29:43;;;;;;;29.88;12.00;;;;;;;13.22;100.00;101520.44;5008092;28;20042;-74
2023/03/20 01:32:15;;;;;;;33.22;15.18;;;;;;;13.77;100.00;101512.47;5004516;28;20528;-76
2023/03/20 01:34:42;;;;;;;22.70;8.45;;;;;;;13.83;100.00;101520.00;5003356;28;20056;-73
2023/03/20 01:37:17;;;;;;;21.88;9.05;;;;;;;14.30;100.00;101530.66;5005136;28;20050;-73
2023/03/20 01:39:44;;;;;;;13.50;5.38;;;;;;;12.83;100.00;101531.44;5005116;28;20534;-76
2023/03/20 01:42:14;;;;;;;27.30;12.10;;;;;;;13.37;100.00;101532.38;5003858;28;20041;-76
2023/03/20 01:44:41;;;;;;;34.88;14.30;;;;;;;13.04;100.00;101537.06;5002430;28;20056;-74
2023/03/20 01:47:18;;;;;;;8.35;2.97;;;;;;;13.83;100.00;101542.25;5003098;28;20056;-75
2023/03/20 01:50:18;;;;;;;18.80;6.30;;;;;;;14.12;100.00;101541.03;4999640;28;20104;-77
2023/03/20 01:52:47;;;;;;;30.77;15.07;;;;;;;13.96;100.00;101539.84;4999241;28;20057;-74
2023/03/20 01:55:14;;;;;;;12.30;5.07;;;;;;;13.85;100.00;101527.97;5005185;28;20140;-75
2023/03/20 01:57:41;;;;;;;29.42;11.82;;;;;;;14.45;100.00;101525.84;5006387;28;20534;-73
2023/03/20 02:00:15;;;;;;;21.98;8.88;;;;;;;14.28;100.00;101524.69;5006082;28;20133;-74
2023/03/20 02:02:45;;;;;;;27.17;11.02;;;;;;;13.98;100.00;101520.78;5021774;28;20133;-74
2023/03/20 02:05:16;;;;;;;30.25;11.90;;;;;;;14.16;100.00;101522.31;5006141;28;20585;-74
2023/03/20 02:07:46;;;;;;;32.35;14.98;;;;;;;13.93;100.00;101515.63;5006084;28;20053;-74
2023/03/20 02:10:15;;;;;;;37.33;16.63;;;;;;;12.76;100.00;101531.44;5021368;28;20065;-78
2023/03/20 02:12:43;;;;;;;35.78;14.88;;;;;;;14.16;100.00;101525.09;5005339;28;20041;-74
2023/03/20 02:15:13;;;;;;;38.22;16.48;;;;;;;13.23;100.00;101527.56;5003708;28;20427;-75
2023/03/20 02:17:41;;;;;;;34.22;16.02;;;;;;;14.25;100.00;101533.88;5001715;28;20054;-74
2023/03/20 02:20:32;;;;;;;36.38;15.50;;;;;;;14.38;100.00;101543.34;5007389;28;20473;-74
2023/03/20 02:23:14;;;;;;;32.97;15.23;;;;;;;14.50;100.00;101548.47;4994526;28;20133;-73
2023/03/20 02:25:59;;;;;;;36.58;17.10;;;;;;;14.63;100.00;101549.63;5005808;28;20467;-75
2023/03/20 02:28:52;;;;;;;29.58;14.60;;;;;;;14.80;100.00;101540.38;5005242;28;20057;-76
2023/03/20 02:31:46;;;;;;;34.95;16.00;;;;;;;14.66;100.00;101534.91;5003440;28;20108;-74
2023/03/20 02:34:28;;;;;;;35.28;16.52;;;;;;;14.63;100.00;101526.53;5005542;28;20611;-74
2023/03/20 02:37:16;;;;;;;36.63;16.50;;;;;;;14.95;100.00;101530.75;5005874;28;20507;-73
2023/03/20 02:40:01;;;;;;;35.80;16.83;;;;;;;15.00;100.00;101537.88;4999920;28;20046;-74
2023/03/20 02:42:57;;;;;;;36.97;16.83;;;;;;;15.17;100.00;101525.81;5004323;28;20675;-74
2023/03/20 02:45:26;;;;;;;38.40;17.17;;;;;;;14.52;100.00;101534.94;5004763;28;20054;-75
2023/03/20 02:47:56;;;;;;;34.30;16.02;;;;;;;14.02;100.00;101544.63;5006650;28;20068;-73
2023/03/20 02:50:32;;;;;;;32.17;15.10;;;;;;;14.86;100.00;101555.50;5006908;28;20212;-74
2023/03/20 02:53:23;;;;;;;37.80;15.00;;;;;;;14.76;100.00;101552.75;5006139;28;20073;-73
2023/03/20 02:56:09;;;;;;;31.55;16.35;;;;;;;14.61;100.00;101548.41;5004558;28;20050;-75
2023/03/20 02:58:44;;;;;;;30.92;14.23;;;;;;;14.54;100.00;101554.81;5006854;28;20046;-75
2023/03/20 03:01:16;;;;;;;29.02;11.93;;;;;;;14.16;100.00;101539.03;4999363;28;20522;-76
2023/03/20 03:03:50;;;;;;;25.65;10.82;;;;;;;14.28;100.00;101554.53;5012933;28;20101;-74
2023/03/20 03:06:38;;;;;;;29.23;12.43;;;;;;;14.18;100.00;101546.97;5011570;28;20093;-76
2023/03/20 03:09:10;;;;;;;29.73;12.20;;;;;;;14.57;100.00;101554.03;5010940;28;20081;-75
2023/03/20 03:11:42;;;;;;;23.98;11.50;;;;;;;14.25;100.00;101541.41;5007383;28;20058;-73
2023/03/20 03:14:23;;;;;;;23.55;8.65;;;;;;;14.37;100.00;101549.31;5008899;28;20084;-74
2023/03/20 03:16:51;;;;;;;19.95;8.00;;;;;;;13.79;100.00;101552.59;5008841;28;20050;-76
2023/03/20 03:19:22;;;;;;;24.98;10.38;;;;;;;13.81;100.00;101546.66;5011717;28;20381;-74
2023/03/20 03:21:49;;;;;;;28.20;11.27;;;;;;;13.77;100.00;101543.84;5008022;28;20048;-75
2023/03/20 03:24:34;;;;;;;18.17;6.18;;;;;;;13.71;100.00;101526.00;5010637;28;20061;-73
2023/03/20 03:27:33;;;;;;;24.67;9.93;;;;;;;13.78;100.00;101522.41;5007493;28;20133;-74
2023/03/20 03:30:05;;;;;;;25.00;10.35;;;;;;;14.21;100.00;101507.22;5007328;28;20088;-75
2023/03/20 03:32:54;;;;;;;19.27;7.68;;;;;;;13.51;100.00;101504.56;5011487;28;20045;-73
2023/03/20 03:35:22;;;;;;;8.57;3.95;;;;;;;13.20;100.00;101508.94;5006589;28;20045;-74
2023/03/20 03:38:00;;;;;;;14.35;5.20;;;;;;;13.33;100.00;101479.53;5008768;28;20396;-76
2023/03/20 03:40:45;;;;;;;19.88;8.38;;;;;;;13.44;100.00;101476.75;5009204;28;20500;-73
2023/03/20 03:43:27;;;;;;;20.10;8.57;;;;;;;13.54;100.00;101473.19;5007762;28;20038;-79
2023/03/20 03:46:02;;;;;;;19.80;8.32;;;;;;;13.64;100.00;101478.75;5010348;28;20046;-77
2023/03/20 03:48:35;;;;;;;;;;;;;;;13.76;100.00;101472.75;5010604;28;20053;-75
2023/03/20 03:51:11;;;;;;;20.35;7.18;;;;;;;13.78;100.00;101480.69;5006345;28;19927;-77
2023/03/20 03:53:47;;;;;;;19.92;6.60;;;;;;;13.74;100.00;101489.03;5006971;28;20054;-78
2023/03/20 03:56:18;;;;;;;18.90;7.03;;;;;;;13.66;100.00;101504.13;5007962;28;20064;-74
2023/03/20 03:58:50;;;;;;;18.92;7.43;;;;;;;13.78;100.00;101506.53;5007940;28;20075;-74
2023/03/20 04:01:18;;;;;;;20.42;7.93;;;;;;;13.63;100.00;101513.28;5009381;28;20085;-74
2023/03/20 04:03:51;;;;;;;19.77;8.35;;;;;;;13.78;100.00;101527.97;5007405;28;20407;-74
2023/03/20 04:06:19;;;;;;;16.70;6.68;;;;;;;13.64;100.00;101530.78;5008309;28;20069;-74
2023/03/20 04:08:45;;;;;;;17.63;6.88;;;;;;;13.89;100.00;101535.09;5009967;28;20077;-73
2023/03/20 04:11:17;;;;;;;19.70;6.90;;;;;;;13.41;100.00;101520.06;5007039;28;20042;-74
2023/03/20 04:13:50;;;;;;;17.50;6.90;;;;;;;14.06;100.00;101528.72;5010139;28;20042;-77
2023/03/20 04:16:17;;;;;;;21.63;7.05;;;;;;;13.65;100.00;101513.69;5006241;28;20060;-79
2023/03/20 04:18:45;;;;;;;14.18;5.50;;;;;;;13.57;100.00;101522.44;5008072;28;20402;-73
2023/03/20 04:21:12;;;;;;;19.55;6.00;;;;;;;13.63;100.00;101520.84;5010320;28;20092;-75
2023/03/20 04:23:38;;;;;;;18.80;6.55;;;;;;;13.85;100.00;101511.25;5007796;28;20053;-75
2023/03/20 04:26:05;;;;;;;11.10;4.00;;;;;;;13.67;100.00;101502.94;5009835;28;20792;-73
2023/03/20 04:28:32;;;;;;;16.90;5.07;;;;;;;13.80;100.00;101497.78;5011354;28;20064;-73
2023/03/20 04:31:01;;;;;;;15.05;5.13;;;;;;;13.36;100.00;101492.63;5010829;28;20136;-76
2023/03/20 04:33:28;;;;;;;6.57;3.03;;;;;;;13.40;100.00;101496.22;5008979;28;20173;-75
2023/03/20 04:35:55;;;;;;;9.50;3.13;;;;;;;13.13;100.00;101497.00;5008713;28;20046;-76
2023/03/20 04:38:22;;;;;;;14.10;4.97;;;;;;;13.42;100.00;101493.84;5008531;28;20054;-74
2023/03/20 04:40:49;;;;;;;8.10;3.20;;;;;;;13.28;100.00;101490.25;5009288;28;20042;-75
2023/03/20 04:43:16;;;;;;;17.05;5.25;;;;;;;13.16;100.00;101488.66;5009691;28;20057;-73
2023/03/20 04:45:43;;;;;;;8.13;3.22;;;;;;;12.95;100.00;101491.41;5003801;28;20654;-74
2023/03/20 04:48:10;;;;;;;23.17;7.25;;;;;;;12.76;100.00;101483.44;5004798;28;20430;-74
2023/03/20 04:50:36;;;;;;;18.55;7.10;;;;;;;13.30;100.00;101480.34;5008170;28;20038;-77
2023/03/20 04:53:03;;;;;;;10.85;3.35;;;;;;;13.31;100.00;101473.59;5020147;28;20054;-75
2023/03/20 04:55:29;;;;;;;10.35;3.50;;;;;;;13.29;100.00;101470.41;5007959;28;20048;-75
2023/03/20 04:57:56;;;;;;;15.23;4.65;;;;;;;12.62;100.00;101461.97;5007211;28;20459;-76
2023/03/20 05:00:23;;;;;;;20.23;7.50;;;;;;;13.35;100.00;101460.47;5024200;28;20042;-72
2023/03/20 05:02:49;;;;;;;19.05;6.28;;;;;;;13.34;100.00;101458.91;5007333;28;20057;-73
2023/03/20 05:05:16;;;;;;;23.80;9.32;;;;;;;13.39;100.00;101468.84;5008360;28;20104;-74
2023/03/20 05:07:42;;;;;;;21.55;8.30;;;;;;;13.40;100.00;101468.41;5008567;28;20049;-76
2023/03/20 05:10:10;;;;;;;19.23;6.78;;;;;;;13.21;100.00;101468.03;5007068;28;20129;-76
2023/03/20 05:12:36;;;;;;;19.83;7.65;;;;;;;13.19;100.00;101479.53;5007025;28;20480;-74
2023/03/20 05:15:03;;;;;;;12.38;4.00;;;;;;;13.27;100.00;101481.16;5008201;28;20054;-74
2023/03/20 05:17:29;;;;;;;23.73;8.57;;;;;;;13.13;100.00;101485.91;5006586;28;20100;-73
2023/03/20 05:19:56;;;;;;;26.63;9.93;;;;;;;13.22;100.00;101481.53;5008365;28;20056;-74
2023/03/20 05:22:23;;;;;;;13.88;4.25;;;;;;;13.22;100.00;101473.19;5008564;28;20046;-75
2023/03/20 05:24:50;;;;;;;25.67;10.70;;;;;;;13.24;100.00;101487.50;5007980;28;20125;-76
2023/03/20 05:27:17;;;;;;;9.35;3.72;;;;;;;13.04;100.00;101489.06;5008226;28;20411;-74
2023/03/20 05:29:44;;;;;;;13.48;4.60;;;;;;;12.97;100.00;101494.59;5009172;28;20488;-75
2023/03/20 05:32:11;;;;;;;25.83;10.02;;;;;;;13.32;100.00;101493.81;5005754;28;20050;-73
2023/03/20 05:34:38;;;;;;;14.30;4.43;;;;;;;13.24;100.00;101501.38;5005798;28;20069;-73
2023/03/20 05:37:05;;;;;;;18.25;7.88;;;;;;;13.31;100.00;101503.38;5003950;28;20140;-73
2023/03/20 05:39:31;;;;;;;9.35;3.78;;;;;;;13.24;100.00;101497.81;5005728;28;20433;-75
2023/03/20 05:41:57;;;;;;;26.48;11.18;;;;;;;13.12;100.00;101501.00;5007514;28;20049;-73
2023/03/20 05:44:24;;;;;;;21.33;9.02;;;;;;;13.06;100.00;101492.22;5005017;28;20046;-74
2023/03/20 05:46:50;;;;;;;25.42;9.43;;;;;;;12.96;100.00;101488.22;5004398;28;20133;-76
2023/03/20 05:49:17;;;;;;;28.20;10.80;;;;;;;13.13;100.00;101491.47;5008722;28;20064;-77
2023/03/20 05:51:43;;;;;;;19.23;7.68;;;;;;;12.75;100.00;101493.75;5008080;28;20042;-74
2023/03/20 05:54:10;;;;;;;8.23;3.53;;;;;;;13.02;100.00;101491.44;5019423;28;20054;-74
2023/03/20 05:56:37;;;;;;;29.60;13.38;;;;;;;13.28;100.00;101493.84;5007544;28;20053;-75
2023/03/20 05:59:03;;;;;;;18.05;6.78;;;;;;;12.99;100.00;101497.78;5005543;28;20084;-74
2023/03/20 06:01:30;;;;;;;31.58;12.60;;;;;;;13.06;100.00;101491.44;5005055;28;20489;-75
2023/03/20 06:03:56;;;;;;;29.85;11.57;;;;;;;13.02;100.00;101492.25;5006719;28;20042;-74
2023/03/20 06:06:23;;;;;;;18.02;7.97;;;;;;;13.00;100.00;101499.38;5007571;28;20570;-73
2023/03/20 06:08:49;;;;;;;28.10;10.15;;;;;;;12.67;100.00;101494.13;5007713;28;20042;-73
2023/03/20 06:11:16;;;;;;;20.17;8.45;;;;;;;13.00;100.00;101499.38;5008419;28;20045;-74
2023/03/20 06:13:43;;;;;;;39.35;15.88;;;;;;;12.61;100.00;101498.47;5003829;28;20049;-74
2023/03/20 06:16:09;;;;;;;27.92;12.00;;;;;;;12.92;100.00;101497.75;5007290;28;20072;-75
2023/03/20 06:18:37;;;;;;;11.63;5.25;;;;;;;13.00;100.00;101513.28;5007286;28;20107;-72
2023/03/20 06:21:04;;;;;;;20.52;8.10;;;;;;;12.89;100.00;101515.19;5023989;28;20589;-74
2023/03/20 06:23:31;;;;;;;21.95;8.60;;;;;;;12.78;100.00;101506.03;5008466;28;20064;-74
2023/03/20 06:25:57;;;;;;;32.95;13.18;;;;;;;12.87;100.00;101500.91;5008873;28;20136;-77
2023/03/20 06:28:24;;;;;;;31.23;12.90;;;;;;;12.84;100.00;101512.81;5009772;28;20407;-75
2023/03/20 06:30:52;;;;;;;23.15;7.82;;;;;;;13.04;100.00;101519.63;5009904;28;20506;-75
2023/03/20 06:33:19;;;;;;;19.85;8.07;;;;;;;12.72;100.00;101522.28;5009412;28;20058;-74
2023/03/20 06:35:46;;;;;;;32.08;13.00;;;;;;;12.81;100.00;101521.94;5003705;28;20193;-74
2023/03/20 06:38:13;;;;;;;41.72;14.13;;;;;;;12.90;100.00;101516.78;5008318;28;20061;-75
2023/03/20 06:40:40;;;;;;;29.27;9.35;;;;;;;12.58;100.00;101527.00;5008432;28;20042;-73
2023/03/20 06:43:07;;;;;;;14.23;6.07;;;;;;;12.78;100.00;101531.03;5010244;28;20037;-74
2023/03/20 06:45:33;;;;;;;18.02;6.95;;;;;;;12.70;100.00;101530.22;5008624;28;20061;-74
2023/03/20 06:48:00;;;;;;;28.02;9.07;;;;;;;12.69;100.00;101528.63;5007567;28;20385;-74
2023/03/20 06:50:27;;;;;;;8.75;4.00;;;;;;;12.70;100.00;101532.22;5008215;28;20506;-74
2023/03/20 06:52:53;;;;;;;14.25;5.32;;;;;;;12.74;100.00;101521.91;5006123;28;20061;-76
2023/03/20 06:55:20;;;;;;;21.95;7.03;;;;;;;13.15;100.00;101537.09;5008007;28;20041;-76
2023/03/20 06:57:46;;;;;;;24.98;10.60;;;;;;;13.11;100.00;101539.09;5008818;28;20064;-72
2023/03/20 07:00:13;;;;;;;7.90;2.80;;;;;;;13.02;100.00;101538.66;5006037;28;20053;-76
2023/03/20 07:02:40;;;;;;;21.35;7.45;;;;;;;12.78;100.00;101544.94;5001188;28;20077;-74
2023/03/20 07:05:07;;;;;;;24.58;10.10;;;;;;;12.86;100.00;101538.22;5008640;28;20132;-74
2023/03/20 07:07:33;;;;;;;22.38;8.35;;;;;;;13.01;100.00;101545.41;5009600;28;20054;-75
2023/03/20 07:10:00;;;;;;;17.55;5.35;;;;;;;12.94;100.00;101532.28;5010603;28;20069;-75
2023/03/20 07:12:27;;;;;;;16.38;5.70;;;;;;;12.93;100.00;101544.56;5008829;28;20100;-74
2023/03/20 07:14:54;;;;;;;13.80;5.15;;;;;;;12.95;100.00;101544.19;5004074;28;20046;-75
2023/03/20 07:17:22;;;;;;;10.40;4.25;;;;;;;12.44;100.00;101554.72;5024033;28;20515;-75
2023/03/20 07:19:49;;;;;;;3.75;2.42;;;;;;;13.10;100.00;101562.50;5001295;28;20467;-75
2023/03/20 07:22:24;;;;;;;10.07;4.78;;;;;;;12.57;100.00;101572.63;5005972;28;20137;-73
2023/03/20 07:24:51;;;;;;;19.10;6.35;;;;;;;12.95;100.00;101571.94;5007229;28;20133;-73
2023/03/20 07:27:18;;;;;;;21.42;8.10;;;;;;;13.18;100.00;101568.84;5007245;28;20046;-72
2023/03/20 07:29:45;;;;;;;20.33;6.03;;;;;;;12.82;100.00;101562.38;5008000;28;20054;-72
2023/03/20 07:32:12;;;;;;;10.95;4.47;;;;;;;13.07;100.00;101566.84;5009943;28;20046;-73
2023/03/20 07:34:38;;;;;;;19.33;6.78;;;;;;;13.46;100.00;101560.56;5006442;28;20108;-74
2023/03/20 07:37:06;;;;;;;3.90;2.25;;;;;;;13.35;100.00;101568.09;5011259;28;20053;-74
2023/03/20 07:39:32;;;;;;;9.40;3.88;;;;;;;13.35;100.00;101570.88;5010254;28;20077;-72
2023/03/20 07:41:59;;;;;;;8.50;2.55;;;;;;;13.11;100.00;101574.41;5008986;28;20075;-77
2023/03/20 07:44:25;;;;;;;21.55;7.63;;;;;;;13.17;100.00;101573.63;5010012;28;20038;-72
2023/03/20 07:46:52;;;;;;;26.35;9.05;;;;;;;13.17;100.00;101573.63;5009340;28;20053;-73
2023/03/20 07:49:19;;;;;;;10.85;4.78;;;;;;;13.23;100.00;101571.25;5012984;28;20530;-74
2023/03/20 07:51:47;;;;;;;11.70;4.55;;;;;;;13.43;100.00;101570.47;5010707;28;20570;-75
2023/03/20 07:54:14;;;;;;;16.27;4.65;;;;;;;13.12;100.00;101576.00;5010661;28;20073;-75
2023/03/20 07:56:41;;;;;;;8.15;2.20;;;;;;;13.34;100.00;101566.50;5008982;28;20095;-74
2023/03/20 07:59:08;;;;;;;16.40;4.97;;;;;;;13.61;100.00;101573.28;5008161;28;20077;-72
2023/03/20 08:01:34;;;;;;;13.05;3.97;;;;;;;13.40;100.00;101585.16;5008283;28;20504;-70
2023/03/20 08:04:01;;;;;;;7.22;2.67;;;;;;;13.50;100.00;101584.38;5008376;28;20049;-73
2023/03/20 08:06:28;;;;;;;4.40;2.45;;;;;;;13.84;100.00;101582.00;5008538;28;20462;-73
2023/03/20 08:08:54;;;;;;;11.00;3.45;;;;;;;13.67;100.00;101577.25;5008961;28;20046;-72
2023/03/20 08:11:21;;;;;;;18.10;6.57;;;;;;;13.79;100.00;101577.66;5008639;28;20046;-73
2023/03/20 08:13:47;;;;;;;11.88;4.70;;;;;;;13.92;100.00;101573.25;5007711;28;20050;-73
2023/03/20 08:16:14;;;;;;;17.20;5.07;;;;;;;13.67;100.00;101574.47;5024094;28;20057;-74
2023/03/20 08:18:41;;;;;;;14.63;5.72;;;;;;;13.92;100.00;101576.03;5010399;28;20050;-73
2023/03/20 08:21:08;;;;;;;19.33;5.50;;;;;;;13.43;100.00;101572.47;5001406;28;20492;-75
2023/03/20 08:23:34;;;;;;;21.08;6.40;;;;;;;13.82;100.00;101579.63;5007945;28;20044;-73
2023/03/20 08:26:01;;;;;;;19.02;5.43;;;;;;;13.83;100.00;101585.97;5005194;28;20056;-72
2023/03/20 08:28:27;;;;;;;23.73;6.68;;;;;;;13.88;100.00;101586.38;5004922;28;20088;-75
2023/03/20 08:31:13;;;;;;;17.10;5.60;;;;;;;14.31;100.00;101585.13;5008173;28;20046;-75
2023/03/20 08:33:40;;;;;;;22.88;8.85;;;;;;;13.82;100.00;101592.72;5008500;28;20041;-72
2023/03/20 08:36:07;;;;;;;16.40;5.43;;;;;;;14.26;100.00;101587.53;5008226;28;20167;-72
2023/03/20 08:38:33;;;;;;;18.65;5.97;;;;;;;14.21;100.00;101580.34;5007833;28;20053;-72
2023/03/20 08:41:00;;;;;;;23.85;6.80;;;;;;;14.07;100.00;101593.53;5008364;28;20053;-71
2023/03/20 08:43:26;;;;;;;8.02;3.35;;;;;;;14.30;100.00;101577.97;5007107;28;20687;-70
2023/03/20 08:45:53;;;;;;;17.25;5.28;;;;;;;14.11;100.00;101592.28;5009050;28;20123;-72
2023/03/20 08:48:20;;;;;;;20.60;7.20;;;;;;;14.20;100.00;101594.66;5008380;28;20049;-75
2023/03/20 08:50:47;;;;;;;14.52;5.05;;;;;;;14.07;100.00;101604.66;5007366;28;20752;-70
2023/03/20 08:53:13;;;;;;;14.52;4.63;;;;;;;13.97;100.00;101578.41;5010776;28;20045;-77
2023/03/20 08:55:40;;;;;;;20.40;7.78;;;;;;;13.76;100.00;101597.91;5016632;28;20046;-76
2023/03/20 08:58:07;;;;;;;15.65;5.97;;;;;;;14.26;100.00;101570.84;5022555;28;20138;-73
2023/03/20 09:00:33;;;;;;;14.85;3.92;;;;;;;14.16;100.00;101575.22;5022731;28;20149;-72
2023/03/20 09:03:00;;;;;;;20.10;6.70;;;;;;;13.96;100.00;101571.25;5023511;28;20085;-73
2023/03/20 09:05:26;;;;;;;16.08;5.18;;;;;;;14.17;100.00;101576.78;5017735;28;20104;-70
2023/03/20 09:07:53;;;;;;;19.35;4.05;;;;;;;14.20;100.00;101584.34;5023185;28;20050;-71
2023/03/20 09:10:20;;;;;;;16.25;5.60;;;;;;;13.96;100.00;101582.41;5007403;28;20518;-73
2023/03/20 09:12:47;;;;;;;10.85;3.25;;;;;;;14.26;100.00;101581.97;5004287;28;20388;-73
2023/03/20 09:15:14;;;;;;;11.48;4.13;;;;;;;14.27;100.00;101589.91;5007430;28;20052;-71
2023/03/20 09:17:40;;;;;;;5.25;1.90;;;;;;;14.37;100.00;101582.72;5006414;28;20755;-70
2023/03/20 09:20:07;;;;;;;5.65;1.85;;;;;;;14.36;100.00;101575.56;5009404;28;20054;-71
2023/03/20 09:22:34;;;;;;;7.15;3.05;;;;;;;14.70;100.00;101587.78;5006545;28;20052;-73
2023/03/20 09:25:00;;;;;;;7.15;2.97;;;;;;;14.69;100.00;101584.22;5006954;28;20054;-72
2023/03/20 09:27:27;;;;;;;6.75;2.65;;;;;;;14.42;100.00;101583.13;5003847;28;20124;-70
2023/03/20 09:29:54;;;;;;;12.60;3.70;;;;;;;14.64;100.00;101581.03;5006745;28;20056;-71
2023/03/20 09:32:20;;;;;;;9.73;3.00;;;;;;;14.42;100.00;101583.13;5008235;28;20050;-71
2023/03/20 09:34:47;;;;;;;5.72;2.50;;;;;;;14.15;100.00;101587.53;5014438;28;20049;-72
2023/03/20 09:37:13;;;;;;;9.13;3.25;;;;;;;14.29;100.00;101581.97;5012108;28;20570;-75
2023/03/20 09:39:40;;;;;;;11.98;2.88;;;;;;;14.08;100.00;101584.78;5008326;28;20152;-71
2023/03/20 09:42:33;;;;;;;7.90;2.00;;;;;;;14.20;100.00;101589.09;5005512;28;20049;-74
2023/03/20 09:45:23;;;;;;;5.97;1.65;;;;;;;14.58;100.00;101589.03;5013570;28;20046;-72
2023/03/20 09:47:50;;;;;;;5.10;1.77;;;;;;;14.19;99.84;101601.44;5004386;28;20053;-72
2023/03/20 09:50:45;;;;;;;4.57;1.55;;;;;;;14.09;99.56;101597.47;5007184;28;20054;-71
2023/03/20 09:53:34;;;;;;;7.68;2.38;;;;;;;13.93;99.97;101594.31;5001432;28;20054;-72
2023/03/20 09:56:02;;;;;;;7.40;2.42;;;;;;;14.17;99.97;101595.50;5006561;28;20046;-74
2023/03/20 09:58:34;;;;;;;7.03;2.50;;;;;;;13.76;100.00;101599.88;5006803;28;20060;-71
2023/03/20 10:01:04;;;;;;;2.55;1.13;;;;;;;14.53;98.99;101589.44;5005907;28;20112;-73
2023/03/20 10:03:49;;;;;;;7.85;2.42;;;;;;;14.53;95.75;101603.38;5007393;28;20149;-75
2023/03/20 10:06:16;;;;;;;6.97;1.75;;;;;;;14.77;95.15;101593.31;5005051;28;20050;-73
2023/03/20 10:08:44;;;;;;;3.67;1.63;;;;;;;14.34;96.30;101601.03;5005405;28;20053;-71
2023/03/20 10:11:30;;;;;;;6.82;2.22;;;;;;;14.54;94.84;101602.16;5001781;28;20050;-74
2023/03/20 10:13:59;;;;;;;7.20;2.13;;;;;;;13.98;95.33;101591.16;5005279;28;20085;-70
2023/03/20 10:16:29;;;;;;;6.28;1.63;;;;;;;14.76;90.20;101588.97;5005401;28;20617;-72
2023/03/20 10:19:20;;;;;;;3.28;1.23;;;;;;;14.27;94.38;101581.56;5005711;28;20058;-71
2023/03/20 10:21:50;;;;;;;6.90;2.28;;;;;;;15.03;89.76;101576.91;5005147;28;20096;-74
2023/03/20 10:24:27;;;;;;;4.55;1.77;;;;;;;14.02;93.45;101580.81;5002995;28;20088;-71
2023/03/20 10:26:57;;;;;;;14.18;3.00;;;;;;;14.55;91.45;101583.47;5005160;28;20083;-71
2023/03/20 10:29:53;;;;;;;13.02;3.08;;;;;;;14.00;91.44;101587.97;5007137;28;20049;-72
2023/03/20 10:32:33;;;;;;;;;;;;;;;13.97;92.02;101597.88;5006199;28;20067;-71
2023/03/20 10:35:09;;;;;;;2.63;1.75;;;;;;;13.83;94.06;101586.78;5005075;28;19925;-73
2023/03/20 10:37:38;;;;;;;;;;;;;;;14.38;92.84;101573.97;5008899;28;20053;-72
2023/03/20 10:40:34;;;;;;;5.35;1.65;;;;;;;14.51;91.55;101574.34;5005435;28;19933;-72
2023/03/20 10:43:17;;;;;;;9.07;2.10;;;;;;;14.96;90.72;101573.34;5005299;28;20079;-72
2023/03/20 10:45:51;;;;;;;3.38;1.58;;;;;;;14.45;93.15;101568.38;5006676;28;20046;-72
2023/03/20 10:48:23;;;;;;;6.13;2.03;;;;;;;14.54;93.38;101562.38;5004657;28;20054;-73
2023/03/20 10:50:54;;;;;;;1.13;0.77;;;;;;;14.40;91.15;101562.44;5002181;28;20045;-72
2023/03/20 10:53:45;;;;;;;2.90;1.30;;;;;;;14.66;90.13;101559.97;5007122;28;20053;-70
2023/03/20 10:56:18;;;;;;;3.67;1.42;;;;;;;14.88;89.56;101569.00;5005540;28;20084;-71
2023/03/20 10:58:49;;;;;;;2.10;1.05;;;;;;;14.48;91.94;101545.28;5016098;28;20729;-74
2023/03/20 11:01:17;;;;;;;6.97;1.77;;;;;;;14.52;92.32;101559.22;4998275;28;20869;-74
2023/03/20 11:03:43;;;;;;;3.53;1.27;;;;;;;14.38;94.81;101548.91;5008402;28;20038;-73
2023/03/20 11:06:21;;;;;;;8.38;2.25;;;;;;;15.01;91.74;101553.41;5005042;28;20054;-71
2023/03/20 11:08:51;;;;;;;9.23;2.05;;;;;;;14.40;93.25;101551.28;5006490;28;20504;-72
2023/03/20 11:11:22;;;;;;;8.20;2.17;;;;;;;14.44;94.01;101550.09;5005308;28;20144;-71
2023/03/20 11:13:49;;;;;;;7.20;2.00;;;;;;;14.32;95.96;101542.19;5005302;28;20456;-71
2023/03/20 11:16:21;;;;;;;3.92;1.55;;;;;;;14.57;96.06;101551.25;5003105;28;20093;-72
2023/03/20 11:18:49;;;;;;;2.60;1.33;;;;;;;14.50;96.84;101547.69;5005726;28;20050;-71
2023/03/20 11:21:20;;;;;;;7.68;2.22;;;;;;;14.29;96.31;101548.56;5006054;28;20050;-74
2023/03/20 11:23:47;;;;;;;5.65;1.70;;;;;;;14.31;97.66;101545.38;5008939;28;20061;-72
2023/03/20 11:26:26;;;;;;;8.70;2.38;;;;;;;14.16;99.29;101558.50;5008588;28;20049;-72
2023/03/20 11:28:56;;;;;;;10.05;2.78;;;;;;;13.86;99.91;101547.03;5009078;28;20052;-71